createdAt,value
2019-03-16T00:02:15.260Z,1.77
2019-03-16T00:04:43.561Z,2.10
2019-03-16T00:07:12.346Z,1.50
2019-03-16T00:09:41.720Z,1.57
2019-03-16T00:12:10.459Z,1.50
2019-03-16T00:14:39.201Z,1.70
2019-03-16T00:17:07.509Z,1.70
2019-03-16T00:19:36.287Z,0.90
2019-03-16T00:22:05.489Z,1.37
2019-03-16T00:24:34.381Z,2.13
2019-03-16T00:27:02.935Z,0.93
2019-03-16T00:29:31.662Z,1.53
2019-03-16T00:32:12.566Z,1.73
2019-03-16T00:34:30.857Z,1.73
2019-03-16T00:37:00.437Z,1.60
2019-03-16T00:39:29.168Z,1.00
2019-03-16T00:41:57.471Z,1.90
2019-03-16T00:44:26.217Z,1.90
2019-03-16T00:46:54.962Z,1.20
2019-03-16T00:49:23.701Z,2.03
2019-03-16T00:51:52.520Z,1.73
2019-03-16T00:54:20.857Z,1.37
2019-03-16T00:56:49.612Z,0.83
2019-03-16T00:59:18.593Z,1.37
2019-03-16T01:01:47.421Z,1.37
2019-03-16T01:04:16.221Z,1.53
2019-03-16T01:06:44.977Z,1.03
2019-03-16T01:09:13.383Z,1.50
2019-03-16T01:11:41.769Z,1.17
2019-03-16T01:14:10.537Z,1.43
2019-03-16T01:16:39.344Z,0.80
2019-03-16T01:19:07.627Z,1.13
2019-03-16T01:21:36.440Z,1.00
2019-03-16T01:24:05.261Z,1.20
2019-03-16T01:26:34.025Z,1.37
2019-03-16T01:29:02.777Z,1.63
2019-03-16T01:31:31.517Z,1.30
2019-03-16T01:34:00.339Z,1.10
2019-03-16T01:36:29.314Z,1.43
2019-03-16T01:38:57.624Z,1.10
2019-03-16T01:41:26.377Z,1.47
2019-03-16T01:43:56.161Z,1.03
2019-03-16T01:46:24.894Z,1.83
2019-03-16T01:48:53.647Z,2.07
2019-03-16T01:51:22.381Z,1.40
2019-03-16T01:53:51.357Z,1.53
2019-03-16T01:56:20.161Z,1.17
2019-03-16T01:58:48.481Z,1.70
2019-03-16T02:01:17.322Z,1.20
2019-03-16T02:03:46.066Z,1.40
2019-03-16T02:06:14.517Z,1.33
2019-03-16T02:08:42.881Z,1.60
2019-03-16T02:11:11.634Z,1.97
2019-03-16T02:13:39.953Z,1.33
2019-03-16T02:16:11.185Z,2.30
2019-03-16T02:18:39.221Z,1.50
2019-03-16T02:21:08.345Z,1.47
2019-03-16T02:23:37.098Z,1.90
2019-03-16T02:26:05.908Z,1.87
2019-03-16T02:28:34.217Z,1.27
2019-03-16T02:31:02.970Z,1.67
2019-03-16T02:33:31.718Z,1.53
2019-03-16T02:36:00.450Z,1.53
2019-03-16T02:38:28.762Z,2.00
2019-03-16T02:40:57.560Z,1.47
2019-03-16T02:43:26.300Z,1.40
2019-03-16T02:45:55.042Z,1.27
2019-03-16T02:48:23.329Z,1.67
2019-03-16T02:50:51.878Z,1.63
2019-03-16T02:53:20.621Z,1.57
2019-03-16T02:55:49.359Z,1.30
2019-03-16T02:58:18.130Z,1.70
2019-03-16T03:00:46.858Z,1.70
2019-03-16T03:03:28.673Z,1.43
2019-03-16T03:05:46.060Z,1.63
2019-03-16T03:08:14.853Z,1.43
2019-03-16T03:10:43.183Z,1.53
2019-03-16T03:13:13.572Z,1.23
2019-03-16T03:15:41.956Z,1.30
2019-03-16T03:18:10.701Z,1.60
2019-03-16T03:20:39.443Z,2.03
2019-03-16T03:23:08.197Z,2.07
2019-03-16T03:25:36.922Z,2.60
2019-03-16T03:28:05.728Z,2.00
2019-03-16T03:30:34.280Z,1.80
2019-03-16T03:33:03.002Z,1.80
2019-03-16T03:35:31.822Z,1.83
2019-03-16T03:38:00.585Z,1.73
2019-03-16T03:40:29.351Z,1.60
2019-03-16T03:42:58.079Z,1.83
2019-03-16T03:45:26.858Z,1.83
2019-03-16T03:47:55.668Z,1.53
2019-03-16T03:50:24.499Z,2.00
2019-03-16T03:52:53.322Z,1.80
2019-03-16T03:55:22.149Z,2.13
2019-03-16T03:57:51.102Z,1.40
2019-03-16T04:00:20.237Z,1.93
2019-03-16T04:02:49.046Z,1.80
2019-03-16T04:05:17.792Z,1.57
2019-03-16T04:07:46.667Z,1.93
2019-03-16T04:10:15.486Z,1.43
2019-03-16T04:12:44.238Z,1.63
2019-03-16T04:15:13.304Z,2.07
2019-03-16T04:17:42.124Z,1.83
2019-03-16T04:20:11.070Z,1.40
2019-03-16T04:22:40.214Z,1.33
2019-03-16T04:25:09.227Z,1.33
2019-03-16T04:27:38.032Z,1.00
2019-03-16T04:30:06.794Z,1.20
2019-03-16T04:32:35.767Z,1.63
2019-03-16T04:35:04.861Z,2.00
2019-03-16T04:37:33.590Z,1.90
2019-03-16T04:40:02.361Z,1.70
2019-03-16T04:42:31.109Z,2.20
2019-03-16T04:45:00.119Z,1.77
2019-03-16T04:47:29.113Z,1.80
2019-03-16T04:49:57.841Z,1.90
2019-03-16T04:52:26.589Z,2.23
2019-03-16T04:54:55.332Z,1.60
2019-03-16T04:57:24.063Z,1.77
2019-03-16T04:59:52.812Z,2.07
2019-03-16T05:02:21.796Z,1.73
2019-03-16T05:04:50.565Z,2.10
2019-03-16T05:07:19.301Z,2.10
2019-03-16T05:09:48.029Z,2.40
2019-03-16T05:12:16.857Z,1.80
2019-03-16T05:14:45.601Z,2.40
2019-03-16T05:17:14.627Z,2.00
2019-03-16T05:19:43.465Z,1.87
2019-03-16T05:22:12.216Z,1.73
2019-03-16T05:24:40.960Z,1.67
2019-03-16T05:27:10.017Z,1.80
2019-03-16T05:29:38.753Z,2.20
2019-03-16T05:32:07.071Z,1.90
2019-03-16T05:34:35.405Z,1.87
2019-03-16T05:37:04.221Z,1.67
2019-03-16T05:39:32.952Z,2.07
2019-03-16T05:42:05.007Z,2.03
2019-03-16T05:44:31.693Z,2.17
2019-03-16T05:47:00.073Z,2.10
2019-03-16T05:49:28.838Z,1.90
2019-03-16T05:51:57.841Z,1.80
2019-03-16T05:54:26.373Z,1.73
2019-03-16T05:56:54.681Z,1.90
2019-03-16T05:59:23.422Z,1.90
2019-03-16T06:01:52.191Z,2.00
2019-03-16T06:04:20.914Z,1.70
2019-03-16T06:06:49.225Z,2.47
2019-03-16T06:09:17.516Z,1.50
2019-03-16T06:11:46.261Z,2.23
2019-03-16T06:14:15.001Z,1.50
2019-03-16T06:16:43.305Z,1.97
2019-03-16T06:19:11.597Z,3.23
2019-03-16T06:21:40.341Z,2.23
2019-03-16T06:24:09.325Z,3.20
2019-03-16T06:26:38.071Z,3.60
2019-03-16T06:29:06.862Z,2.50
2019-03-16T06:31:35.692Z,2.67
2019-03-16T06:34:04.506Z,3.07
2019-03-16T06:36:33.265Z,3.17
2019-03-16T06:39:01.553Z,3.07
2019-03-16T06:41:30.329Z,3.57
2019-03-16T06:43:58.620Z,3.73
2019-03-16T06:46:27.377Z,3.07
2019-03-16T06:48:55.678Z,3.50
2019-03-16T06:51:23.965Z,3.57
2019-03-16T06:53:52.713Z,4.13
2019-03-16T06:56:21.453Z,4.70
2019-03-16T06:58:51.553Z,6.03
2019-03-16T07:01:19.841Z,3.57
2019-03-16T07:03:48.294Z,2.90
2019-03-16T07:06:17.034Z,3.63
2019-03-16T07:08:45.342Z,2.10
2019-03-16T07:11:13.619Z,1.60
2019-03-16T07:13:42.357Z,1.20
2019-03-16T07:16:11.084Z,1.50
2019-03-16T07:18:39.386Z,1.80
2019-03-16T07:21:08.113Z,1.37
2019-03-16T07:23:36.913Z,1.70
2019-03-16T07:26:14.730Z,1.60
2019-03-16T07:28:36.334Z,2.23
2019-03-16T07:31:05.133Z,1.60
2019-03-16T07:33:33.882Z,1.57
2019-03-16T07:36:02.178Z,2.07
2019-03-16T07:38:30.518Z,2.17
2019-03-16T07:40:59.247Z,1.50
2019-03-16T07:43:27.558Z,1.20
2019-03-16T07:45:55.837Z,1.27
2019-03-16T07:48:24.659Z,0.97
2019-03-16T07:50:53.405Z,1.20
2019-03-16T07:53:22.157Z,1.17
2019-03-16T07:55:50.452Z,0.73
2019-03-16T07:58:19.236Z,1.30
2019-03-16T08:00:48.037Z,0.90
2019-03-16T08:03:16.790Z,0.63
2019-03-16T08:05:45.081Z,1.13
2019-03-16T08:08:13.395Z,1.03
2019-03-16T08:10:41.713Z,1.00
2019-03-16T08:13:10.466Z,1.00
2019-03-16T08:15:39.205Z,1.00
2019-03-16T08:18:08.097Z,1.00
2019-03-16T08:20:37.034Z,1.00
2019-03-16T08:23:05.785Z,1.10
2019-03-16T08:25:34.549Z,0.80
2019-03-16T08:28:03.417Z,1.03
2019-03-16T08:30:32.189Z,1.00
2019-03-16T08:33:01.023Z,1.53
2019-03-16T08:35:29.318Z,0.90
2019-03-16T08:37:57.609Z,0.83
2019-03-16T08:40:25.906Z,0.90
2019-03-16T08:42:54.254Z,0.90
2019-03-16T08:45:23.157Z,0.80
2019-03-16T08:47:51.890Z,0.80
2019-03-16T08:50:20.633Z,0.80
2019-03-16T08:52:49.353Z,0.77
2019-03-16T08:55:18.349Z,0.50
2019-03-16T08:57:47.330Z,0.60
2019-03-16T09:00:16.216Z,0.70
2019-03-16T09:02:44.960Z,0.50
2019-03-16T09:05:13.261Z,0.60
2019-03-16T09:07:44.775Z,0.60
2019-03-16T09:10:13.593Z,0.60
2019-03-16T09:12:54.015Z,0.50
2019-03-16T09:15:12.009Z,0.50
2019-03-16T09:17:40.310Z,0.50
2019-03-16T09:20:09.327Z,0.50
2019-03-16T09:22:38.121Z,0.60
2019-03-16T09:25:07.353Z,0.60
2019-03-16T09:27:35.765Z,0.50
2019-03-16T09:30:05.494Z,0.60
2019-03-16T09:32:34.287Z,1.17
2019-03-16T09:35:03.045Z,0.93
2019-03-16T09:37:31.350Z,0.67
2019-03-16T09:39:59.633Z,0.90
2019-03-16T09:42:27.917Z,0.57
2019-03-16T09:44:56.221Z,0.43
2019-03-16T09:47:24.509Z,0.60
2019-03-16T09:49:53.237Z,0.70
2019-03-16T09:52:21.981Z,0.80
2019-03-16T09:54:50.723Z,0.63
2019-03-16T09:57:19.015Z,0.60
2019-03-16T09:59:47.752Z,1.03
2019-03-16T10:02:16.505Z,0.70
2019-03-16T10:04:44.794Z,0.90
2019-03-16T10:07:13.088Z,0.70
2019-03-16T10:09:41.374Z,0.63
2019-03-16T10:12:09.671Z,0.50
2019-03-16T10:14:37.949Z,0.70
2019-03-16T10:17:06.705Z,0.80
2019-03-16T10:19:35.455Z,0.50
2019-03-16T10:22:04.269Z,0.80
2019-03-16T10:24:33.009Z,0.60
2019-03-16T10:27:02.039Z,0.80
2019-03-16T10:29:30.773Z,0.63
2019-03-16T10:31:59.593Z,1.00
2019-03-16T10:34:28.333Z,1.00
2019-03-16T10:36:57.396Z,0.73
2019-03-16T10:39:25.850Z,1.10
2019-03-16T10:41:54.596Z,0.40
2019-03-16T10:44:22.869Z,0.60
2019-03-16T10:46:51.165Z,0.60
2019-03-16T10:49:19.914Z,0.83
2019-03-16T10:51:48.682Z,0.80
2019-03-16T10:54:17.477Z,0.70
2019-03-16T10:56:46.489Z,0.60
2019-03-16T10:59:15.241Z,0.90
2019-03-16T11:01:43.978Z,0.97
2019-03-16T11:04:12.257Z,0.70
2019-03-16T11:06:40.998Z,1.50
2019-03-16T11:09:09.388Z,0.63
2019-03-16T11:11:37.681Z,0.60
2019-03-16T11:14:06.409Z,0.80
2019-03-16T11:16:35.148Z,0.83
2019-03-16T11:19:04.543Z,0.80
2019-03-16T11:21:33.325Z,0.70
2019-03-16T11:24:02.306Z,0.77
2019-03-16T11:26:30.746Z,0.90
2019-03-16T11:29:08.444Z,0.80
2019-03-16T11:31:29.595Z,0.70
2019-03-16T11:33:58.341Z,0.80
2019-03-16T11:36:27.078Z,0.63
2019-03-16T11:38:55.379Z,0.63
2019-03-16T11:41:23.649Z,0.53
2019-03-16T11:43:51.999Z,0.77
2019-03-16T11:46:20.810Z,0.80
2019-03-16T11:48:49.125Z,0.80
2019-03-16T11:51:17.908Z,0.80
2019-03-16T11:53:46.177Z,0.90
2019-03-16T11:56:18.199Z,0.80
2019-03-16T11:58:45.482Z,0.80
2019-03-16T12:01:14.229Z,0.77
2019-03-16T12:03:42.995Z,0.70
2019-03-16T12:06:11.309Z,0.70
2019-03-16T12:08:39.890Z,0.70
2019-03-16T12:11:08.277Z,0.30
2019-03-16T12:13:37.053Z,0.43
2019-03-16T12:16:05.345Z,0.70
2019-03-16T12:18:33.686Z,0.93
2019-03-16T12:21:02.504Z,0.78
2019-03-16T12:23:31.282Z,0.30
2019-03-16T12:26:00.017Z,0.60
2019-03-16T12:28:28.753Z,0.70
2019-03-16T12:30:57.082Z,0.30
2019-03-16T12:33:25.833Z,0.30
2019-03-16T12:35:54.109Z,0.57
2019-03-16T12:38:22.497Z,0.80
2019-03-16T12:40:51.272Z,0.93
2019-03-16T12:43:19.575Z,0.50
2019-03-16T12:45:47.865Z,0.83
2019-03-16T12:48:16.626Z,0.50
2019-03-16T12:50:45.362Z,0.70
2019-03-16T12:53:14.482Z,0.50
2019-03-16T12:55:43.373Z,0.60
2019-03-16T12:58:12.143Z,0.73
2019-03-16T13:00:40.874Z,0.70
2019-03-16T13:03:09.621Z,0.70
2019-03-16T13:05:38.681Z,0.57
2019-03-16T13:08:07.415Z,0.70
2019-03-16T13:10:35.790Z,0.80
2019-03-16T13:13:04.064Z,0.50
2019-03-16T13:15:32.969Z,0.70
2019-03-16T13:18:01.721Z,0.40
2019-03-16T13:20:30.022Z,0.63
2019-03-16T13:22:58.383Z,0.50
2019-03-16T13:25:26.693Z,0.70
2019-03-16T13:27:55.446Z,1.07
2019-03-16T13:30:23.747Z,0.67
2019-03-16T13:32:52.481Z,0.53
2019-03-16T13:35:21.313Z,0.40
2019-03-16T13:37:49.605Z,0.80
2019-03-16T13:40:18.506Z,0.90
2019-03-16T13:42:47.254Z,0.77
2019-03-16T13:45:15.642Z,0.60
2019-03-16T13:47:43.938Z,0.57
2019-03-16T13:50:13.182Z,0.67
2019-03-16T13:52:41.981Z,0.60
2019-03-16T13:55:10.985Z,0.97
2019-03-16T13:57:39.901Z,0.60
2019-03-16T14:00:12.233Z,0.90
2019-03-16T14:02:40.140Z,0.73
2019-03-16T14:05:09.035Z,0.97
2019-03-16T14:07:37.616Z,0.93
2019-03-16T14:10:06.908Z,0.80
2019-03-16T14:12:35.205Z,1.50
2019-03-16T14:15:03.611Z,1.40
2019-03-16T14:17:32.205Z,0.90
2019-03-16T14:20:00.973Z,0.93
2019-03-16T14:22:29.784Z,1.30
2019-03-16T14:24:58.613Z,1.10
2019-03-16T14:27:27.417Z,0.80
2019-03-16T14:29:56.217Z,1.00
2019-03-16T14:32:25.199Z,1.20
2019-03-16T14:34:53.876Z,1.30
2019-03-16T14:37:23.125Z,1.20
2019-03-16T14:39:51.422Z,0.80
2019-03-16T14:42:19.893Z,0.93
2019-03-16T14:44:48.630Z,1.00
2019-03-16T14:47:17.440Z,1.00
2019-03-16T14:49:46.208Z,1.00
2019-03-16T14:52:14.981Z,1.13
2019-03-16T14:54:43.735Z,0.80
2019-03-16T14:57:12.634Z,0.97
2019-03-16T14:59:41.508Z,1.03
2019-03-16T15:02:10.274Z,1.20
2019-03-16T15:04:39.154Z,1.00
2019-03-16T15:07:07.486Z,0.80
2019-03-16T15:09:35.831Z,0.80
2019-03-16T15:12:04.772Z,0.80
2019-03-16T15:14:33.554Z,1.00
2019-03-16T15:17:01.929Z,1.03
2019-03-16T15:19:30.659Z,0.80
2019-03-16T15:21:59.037Z,1.30
2019-03-16T15:24:28.133Z,1.40
2019-03-16T15:26:56.889Z,0.90
2019-03-16T15:29:25.637Z,1.23
2019-03-16T15:31:54.229Z,1.37
2019-03-16T15:34:22.987Z,1.13
2019-03-16T15:36:52.583Z,0.93
2019-03-16T15:39:21.621Z,1.63
2019-03-16T15:41:49.953Z,0.97
2019-03-16T15:44:18.705Z,1.10
2019-03-16T15:46:47.468Z,1.13
2019-03-16T15:49:15.801Z,1.23
2019-03-16T15:51:44.598Z,0.97
2019-03-16T15:54:13.589Z,0.97
2019-03-16T15:56:42.418Z,0.93
2019-03-16T15:59:11.482Z,1.53
2019-03-16T16:01:40.802Z,0.90
2019-03-16T16:04:09.762Z,0.83
2019-03-16T16:06:38.524Z,1.00
2019-03-16T16:09:07.343Z,0.80
2019-03-16T16:11:35.625Z,1.10
2019-03-16T16:14:04.548Z,1.70
2019-03-16T16:16:32.913Z,1.27
2019-03-16T16:19:01.698Z,0.93
2019-03-16T16:21:30.765Z,1.50
2019-03-16T16:23:59.590Z,1.27
2019-03-16T16:26:28.324Z,1.17
2019-03-16T16:28:56.681Z,1.10
2019-03-16T16:31:24.989Z,1.63
2019-03-16T16:33:53.813Z,1.00
2019-03-16T16:36:22.549Z,1.40
2019-03-16T16:38:50.869Z,1.60
2019-03-16T16:41:19.745Z,1.10
2019-03-16T16:43:48.164Z,0.80
2019-03-16T16:46:16.901Z,1.63
2019-03-16T16:48:45.193Z,1.47
2019-03-16T16:51:14.009Z,2.23
2019-03-16T16:53:42.745Z,1.20
2019-03-16T16:56:11.537Z,1.60
2019-03-16T16:58:39.848Z,1.30
2019-03-16T17:01:08.729Z,1.23
2019-03-16T17:03:37.478Z,0.90
2019-03-16T17:06:06.289Z,1.97
2019-03-16T17:08:35.054Z,1.97
2019-03-16T17:11:03.870Z,1.20
2019-03-16T17:13:32.628Z,1.43
2019-03-16T17:16:01.362Z,1.30
2019-03-16T17:18:29.749Z,1.30
2019-03-16T17:20:58.096Z,1.77
2019-03-16T17:23:26.839Z,1.83
2019-03-16T17:25:55.662Z,1.87
2019-03-16T17:28:24.457Z,2.17
2019-03-16T17:30:54.381Z,1.10
2019-03-16T17:33:23.204Z,2.07
2019-03-16T17:35:51.737Z,1.47
2019-03-16T17:38:20.470Z,1.50
2019-03-16T17:40:49.238Z,1.13
2019-03-16T17:43:17.525Z,1.97
2019-03-16T17:45:45.834Z,1.57
2019-03-16T17:48:14.118Z,1.57
2019-03-16T17:50:42.905Z,2.37
2019-03-16T17:53:11.670Z,1.50
2019-03-16T17:55:40.413Z,1.83
2019-03-16T17:58:08.693Z,1.00
2019-03-16T18:00:37.442Z,1.53
2019-03-16T18:03:06.257Z,1.00
2019-03-16T18:05:35.034Z,1.30
2019-03-16T18:08:03.561Z,1.47
2019-03-16T18:10:31.854Z,1.40
2019-03-16T18:13:00.213Z,1.53
2019-03-16T18:15:28.513Z,1.47
2019-03-16T18:17:57.665Z,2.07
2019-03-16T18:20:26.501Z,1.50
2019-03-16T18:22:55.230Z,1.43
2019-03-16T18:25:23.532Z,1.33
2019-03-16T18:27:52.265Z,1.50
2019-03-16T18:30:20.575Z,1.67
2019-03-16T18:32:49.394Z,1.23
2019-03-16T18:35:18.271Z,1.37
2019-03-16T18:37:47.145Z,1.33
2019-03-16T18:40:15.553Z,1.10
2019-03-16T18:42:43.861Z,1.73
2019-03-16T18:45:14.105Z,1.83
2019-03-16T18:47:42.840Z,1.43
2019-03-16T18:50:11.851Z,1.40
2019-03-16T18:52:40.163Z,1.60
2019-03-16T18:55:10.141Z,1.40
2019-03-16T18:57:39.033Z,1.33
2019-03-16T19:00:08.957Z,1.50
2019-03-16T19:02:37.762Z,1.77
2019-03-16T19:05:06.309Z,1.20
2019-03-16T19:07:35.049Z,0.97
2019-03-16T19:10:04.338Z,1.43
2019-03-16T19:12:32.630Z,1.37
2019-03-16T19:15:00.915Z,1.90
2019-03-16T19:17:29.661Z,2.20
2019-03-16T19:19:58.400Z,1.53
2019-03-16T19:22:27.241Z,1.37
2019-03-16T19:24:55.546Z,1.40
2019-03-16T19:27:24.354Z,1.67
2019-03-16T19:29:53.170Z,1.30
2019-03-16T19:32:33.221Z,1.50
2019-03-16T19:34:52.405Z,1.50
2019-03-16T19:37:21.493Z,1.70
2019-03-16T19:39:50.390Z,1.63
2019-03-16T19:42:19.240Z,1.50
2019-03-16T19:44:47.557Z,1.40
2019-03-16T19:47:15.866Z,2.00
2019-03-16T19:49:44.162Z,2.10
2019-03-16T19:52:12.918Z,1.60
2019-03-16T19:54:41.206Z,1.33
2019-03-16T19:57:15.948Z,1.40
2019-03-16T19:59:40.485Z,1.70
2019-03-16T20:02:08.785Z,1.43
2019-03-16T20:04:37.562Z,1.60
2019-03-16T20:07:18.440Z,1.07
2019-03-16T20:09:36.953Z,2.63
2019-03-16T20:12:05.297Z,2.13
2019-03-16T20:14:33.685Z,1.70
2019-03-16T20:17:02.006Z,1.67
2019-03-16T20:19:30.766Z,1.17
2019-03-16T20:21:59.534Z,1.30
2019-03-16T20:24:28.073Z,2.03
2019-03-16T20:26:56.382Z,1.60
2019-03-16T20:29:25.117Z,1.50
2019-03-16T20:31:53.863Z,1.30
2019-03-16T20:34:22.154Z,1.33
2019-03-16T20:36:50.452Z,1.27
2019-03-16T20:39:19.212Z,1.37
2019-03-16T20:41:47.543Z,1.30
2019-03-16T20:44:16.519Z,1.33
2019-03-16T20:46:44.794Z,2.00
2019-03-16T20:49:13.551Z,1.53
2019-03-16T20:51:42.394Z,1.13
2019-03-16T20:54:11.130Z,1.83
2019-03-16T20:56:39.441Z,1.30
2019-03-16T20:59:08.425Z,1.80
2019-03-16T21:01:37.161Z,1.70
2019-03-16T21:04:08.197Z,1.50
2019-03-16T21:06:36.957Z,1.50
2019-03-16T21:09:06.713Z,1.43
2019-03-16T21:11:35.534Z,1.60
2019-03-16T21:14:04.424Z,1.40
2019-03-16T21:16:33.275Z,1.33
2019-03-16T21:19:01.758Z,1.70
2019-03-16T21:21:30.078Z,1.63
2019-03-16T21:23:58.901Z,1.73
2019-03-16T21:26:27.881Z,1.70
2019-03-16T21:28:56.683Z,1.37
2019-03-16T21:31:25.481Z,2.10
2019-03-16T21:33:54.271Z,2.20
2019-03-16T21:36:23.145Z,2.50
2019-03-16T21:38:51.497Z,1.20
2019-03-16T21:41:20.283Z,1.43
2019-03-16T21:43:49.338Z,1.50
2019-03-16T21:46:17.717Z,1.53
2019-03-16T21:48:46.648Z,1.73
2019-03-16T21:51:15.290Z,1.57
2019-03-16T21:53:43.682Z,1.53
2019-03-16T21:56:12.418Z,1.97
2019-03-16T21:58:41.421Z,1.80
2019-03-16T22:01:10.204Z,1.90
2019-03-16T22:03:41.820Z,1.47
2019-03-16T22:06:09.557Z,1.07
2019-03-16T22:08:38.377Z,1.47
2019-03-16T22:11:07.238Z,1.70
2019-03-16T22:13:35.577Z,1.90
2019-03-16T22:16:04.425Z,1.40
2019-03-16T22:18:33.277Z,1.10
2019-03-16T22:21:02.065Z,1.07
2019-03-16T22:23:30.850Z,1.47
2019-03-16T22:25:59.593Z,1.00
2019-03-16T22:28:28.405Z,1.20
2019-03-16T22:30:57.269Z,1.60
2019-03-16T22:33:26.081Z,2.77
2019-03-16T22:35:54.376Z,1.23
2019-03-16T22:38:23.173Z,1.27
2019-03-16T22:40:51.543Z,1.20
2019-03-16T22:43:20.303Z,0.80
2019-03-16T22:45:49.237Z,1.10
2019-03-16T22:48:17.549Z,1.40
2019-03-16T22:50:46.467Z,1.40
2019-03-16T22:53:15.194Z,1.60
2019-03-16T22:55:43.945Z,1.10
2019-03-16T22:58:12.806Z,1.10
2019-03-16T23:00:45.150Z,0.90
2019-03-16T23:03:14.381Z,1.00
2019-03-16T23:05:43.266Z,1.00
2019-03-16T23:08:11.676Z,1.00
2019-03-16T23:10:40.044Z,0.80
2019-03-16T23:13:08.448Z,0.97
2019-03-16T23:15:37.341Z,1.00
2019-03-16T23:18:05.731Z,0.87
2019-03-16T23:20:34.581Z,1.10
2019-03-16T23:23:02.933Z,0.90
2019-03-16T23:25:31.911Z,0.87
2019-03-16T23:28:00.701Z,1.07
2019-03-16T23:30:29.453Z,1.20
2019-03-16T23:32:58.675Z,1.03
2019-03-16T23:35:27.475Z,0.60
2019-03-16T23:37:55.762Z,1.10
2019-03-16T23:40:24.518Z,0.87
2019-03-16T23:42:52.898Z,0.87
2019-03-16T23:45:21.645Z,1.20
2019-03-16T23:47:50.478Z,0.70
2019-03-16T23:50:19.229Z,0.83
2019-03-16T23:52:47.965Z,1.10
2019-03-16T23:55:16.721Z,1.03
2019-03-16T23:57:45.471Z,0.80
